createdAt,value
2019-03-08T00:02:25.818Z,4.30
2019-03-08T00:04:54.088Z,7.75
2019-03-08T00:07:22.352Z,4.17
2019-03-08T00:09:50.926Z,4.93
2019-03-08T00:12:19.177Z,4.27
2019-03-08T00:14:47.469Z,6.70
2019-03-08T00:17:15.718Z,4.37
2019-03-08T00:19:44.015Z,4.55
2019-03-08T00:22:12.319Z,4.08
2019-03-08T00:24:40.607Z,4.77
2019-03-08T00:27:08.876Z,4.45
2019-03-08T00:29:37.132Z,4.62
2019-03-08T00:32:05.494Z,4.47
2019-03-08T00:34:33.764Z,4.70
2019-03-08T00:37:02.043Z,6.78
2019-03-08T00:39:30.303Z,4.37
2019-03-08T00:41:58.573Z,6.53
2019-03-08T00:44:26.850Z,5.10
2019-03-08T00:46:55.121Z,4.67
2019-03-08T00:49:23.400Z,4.93
2019-03-08T00:51:51.668Z,5.45
2019-03-08T00:54:19.953Z,6.60
2019-03-08T00:56:48.210Z,7.33
2019-03-08T00:59:16.477Z,6.10
2019-03-08T01:01:44.758Z,7.03
2019-03-08T01:04:13.024Z,6.40
2019-03-08T01:06:41.295Z,8.40
2019-03-08T01:09:09.572Z,6.05
2019-03-08T01:11:38.055Z,7.63
2019-03-08T01:14:06.326Z,7.53
2019-03-08T01:16:34.616Z,8.40
2019-03-08T01:19:02.890Z,8.67
2019-03-08T01:21:31.159Z,9.60
2019-03-08T01:23:59.439Z,9.93
2019-03-08T01:26:28.000Z,7.50
2019-03-08T01:28:56.295Z,8.17
2019-03-08T01:31:24.559Z,10.57
2019-03-08T01:33:52.850Z,10.47
2019-03-08T01:36:21.135Z,8.33
2019-03-08T01:38:49.405Z,9.18
2019-03-08T01:41:17.870Z,10.40
2019-03-08T01:43:46.142Z,10.17
2019-03-08T01:46:14.434Z,9.33
2019-03-08T01:48:42.694Z,8.93
2019-03-08T01:51:10.970Z,9.10
2019-03-08T01:53:40.266Z,9.93
2019-03-08T01:56:08.726Z,11.23
2019-03-08T01:58:37.000Z,12.20
2019-03-08T02:01:05.277Z,10.75
2019-03-08T02:03:33.547Z,10.37
2019-03-08T02:06:01.827Z,10.47
2019-03-08T02:08:30.125Z,10.30
2019-03-08T02:10:58.604Z,14.20
2019-03-08T02:13:26.888Z,10.50
2019-03-08T02:15:55.185Z,10.63
2019-03-08T02:18:23.453Z,9.48
2019-03-08T02:20:52.369Z,10.98
2019-03-08T02:23:20.684Z,8.80
2019-03-08T02:25:49.242Z,11.48
2019-03-08T02:28:17.546Z,8.73
2019-03-08T02:30:45.844Z,10.20
2019-03-08T02:33:14.136Z,8.53
2019-03-08T02:35:42.463Z,9.33
2019-03-08T02:38:10.703Z,9.60
2019-03-08T02:40:39.475Z,8.50
2019-03-08T02:43:12.488Z,8.07
2019-03-08T02:45:40.776Z,8.53
2019-03-08T02:48:09.077Z,10.10
2019-03-08T02:50:37.358Z,8.03
2019-03-08T02:53:05.704Z,7.70
2019-03-08T02:55:34.129Z,6.60
2019-03-08T02:58:02.417Z,7.50
2019-03-08T03:00:34.438Z,6.63
2019-03-08T03:03:02.816Z,7.37
2019-03-08T03:05:31.088Z,6.77
2019-03-08T03:07:59.341Z,6.90
2019-03-08T03:10:27.642Z,6.30
2019-03-08T03:12:55.919Z,7.17
2019-03-08T03:15:24.219Z,7.87
2019-03-08T03:17:52.599Z,7.83
2019-03-08T03:20:20.869Z,7.73
2019-03-08T03:22:49.139Z,8.07
2019-03-08T03:25:17.412Z,8.13
2019-03-08T03:27:45.703Z,7.42
2019-03-08T03:30:20.732Z,7.10
2019-03-08T03:32:49.014Z,7.87
2019-03-08T03:35:17.297Z,7.95
2019-03-08T03:37:45.860Z,8.83
2019-03-08T03:40:18.408Z,9.03
2019-03-08T03:42:46.677Z,8.33
2019-03-08T03:45:19.117Z,9.60
2019-03-08T03:47:48.033Z,8.45
2019-03-08T03:50:18.340Z,9.30
2019-03-08T03:52:46.362Z,7.70
2019-03-08T03:55:16.283Z,8.33
2019-03-08T03:57:44.549Z,8.38
2019-03-08T04:00:18.831Z,8.90
2019-03-08T04:02:47.156Z,9.27
2019-03-08T04:05:15.521Z,8.23
2019-03-08T04:07:43.797Z,9.15
2019-03-08T04:10:14.266Z,8.70
2019-03-08T04:12:42.545Z,8.13
2019-03-08T04:15:13.529Z,7.77
2019-03-08T04:17:41.831Z,7.17
2019-03-08T04:20:12.530Z,5.90
2019-03-08T04:22:40.832Z,5.80
2019-03-08T04:25:10.147Z,6.00
2019-03-08T04:27:38.418Z,5.03
2019-03-08T04:30:09.805Z,6.87
2019-03-08T04:32:38.249Z,6.43
2019-03-08T04:35:06.515Z,6.37
2019-03-08T04:37:34.802Z,6.03
2019-03-08T04:40:03.848Z,7.93
2019-03-08T04:42:32.118Z,7.13
2019-03-08T04:45:00.380Z,4.90
2019-03-08T04:47:28.942Z,6.50
2019-03-08T04:49:57.217Z,6.03
2019-03-08T04:52:25.500Z,5.50
2019-03-08T04:54:53.757Z,5.17
2019-03-08T04:57:22.019Z,4.77
2019-03-08T04:59:50.303Z,6.85
2019-03-08T05:02:18.569Z,6.67
2019-03-08T05:04:46.842Z,5.43
2019-03-08T05:07:15.124Z,5.97
2019-03-08T05:09:43.400Z,4.07
2019-03-08T05:12:11.675Z,4.70
2019-03-08T05:14:39.960Z,6.63
2019-03-08T05:17:08.254Z,4.50
2019-03-08T05:19:36.528Z,4.40
2019-03-08T05:22:04.863Z,4.73
2019-03-08T05:24:33.116Z,4.23
2019-03-08T05:27:01.389Z,5.55
2019-03-08T05:29:29.671Z,5.10
2019-03-08T05:31:57.944Z,5.22
2019-03-08T05:34:26.381Z,6.23
2019-03-08T05:36:54.659Z,4.70
2019-03-08T05:39:22.943Z,3.87
2019-03-08T05:41:52.821Z,4.95
2019-03-08T05:44:21.095Z,2.50
2019-03-08T05:46:49.368Z,2.40
2019-03-08T05:49:17.845Z,3.20
2019-03-08T05:51:46.131Z,5.47
2019-03-08T05:54:14.410Z,2.80
2019-03-08T05:56:42.700Z,2.20
2019-03-08T05:59:10.977Z,2.37
2019-03-08T06:01:39.255Z,7.33
2019-03-08T06:04:07.818Z,3.97
2019-03-08T06:06:36.110Z,2.70
2019-03-08T06:09:06.414Z,1.90
2019-03-08T06:11:34.696Z,2.33
2019-03-08T06:14:02.992Z,2.27
2019-03-08T06:16:31.241Z,2.30
2019-03-08T06:18:59.814Z,3.50
2019-03-08T06:21:28.082Z,2.70
2019-03-08T06:23:56.369Z,4.17
2019-03-08T06:26:24.655Z,10.37
2019-03-08T06:28:52.940Z,8.27
2019-03-08T06:31:21.222Z,8.73
2019-03-08T06:33:49.489Z,6.53
2019-03-08T06:36:17.948Z,6.43
2019-03-08T06:38:46.234Z,12.60
2019-03-08T06:41:14.514Z,3.10
2019-03-08T06:43:43.261Z,4.45
2019-03-08T06:46:11.534Z,7.20
2019-03-08T06:48:39.800Z,5.27
2019-03-08T06:51:08.074Z,3.83
2019-03-08T06:53:36.354Z,10.60
2019-03-08T06:56:04.636Z,12.00
2019-03-08T06:58:34.568Z,13.18
2019-03-08T07:01:04.491Z,8.93
2019-03-08T07:03:32.763Z,13.03
2019-03-08T07:06:01.034Z,12.53
2019-03-08T07:08:29.329Z,12.07
2019-03-08T07:10:57.654Z,9.53
2019-03-08T07:13:25.929Z,9.95
2019-03-08T07:15:54.212Z,11.23
2019-03-08T07:18:22.468Z,12.10
2019-03-08T07:20:58.060Z,11.15
2019-03-08T07:23:39.668Z,15.87
2019-03-08T07:26:12.518Z,18.90
2019-03-08T07:28:51.060Z,25.90
2019-03-08T07:31:30.291Z,18.87
2019-03-08T07:34:16.363Z,17.12
2019-03-08T07:36:57.983Z,20.97
2019-03-08T07:39:42.696Z,19.13
2019-03-08T07:42:24.485Z,15.10
2019-03-08T07:45:08.955Z,18.77
2019-03-08T07:47:41.242Z,18.63
2019-03-08T07:50:23.676Z,18.60
2019-03-08T07:52:59.431Z,20.80
2019-03-08T07:55:29.352Z,22.27
2019-03-08T07:58:15.203Z,25.80
2019-03-08T08:00:47.509Z,26.85
2019-03-08T08:03:35.670Z,20.83
2019-03-08T08:06:05.584Z,23.90
2019-03-08T08:08:35.502Z,22.60
2019-03-08T08:11:17.261Z,31.97
2019-03-08T08:14:03.105Z,24.33
2019-03-08T08:16:51.192Z,27.82
2019-03-08T08:19:21.098Z,30.53
2019-03-08T08:22:00.023Z,21.83
2019-03-08T08:24:29.934Z,22.90
2019-03-08T08:27:02.494Z,20.33
2019-03-08T08:29:41.642Z,28.77
2019-03-08T08:32:23.243Z,14.63
2019-03-08T08:34:58.805Z,20.60
2019-03-08T08:37:40.545Z,24.53
2019-03-08T08:40:11.899Z,25.57
2019-03-08T08:42:58.045Z,9.67
2019-03-08T08:45:43.624Z,17.55
2019-03-08T08:48:29.700Z,11.47
2019-03-08T08:50:59.615Z,22.17
2019-03-08T08:53:32.618Z,19.87
2019-03-08T08:56:14.099Z,19.40
2019-03-08T08:58:46.930Z,18.80
2019-03-08T09:01:22.373Z,21.13
2019-03-08T09:03:55.007Z,17.02
2019-03-08T09:06:41.075Z,13.17
2019-03-08T09:09:16.422Z,15.00
2019-03-08T09:11:52.503Z,18.87
2019-03-08T09:14:20.877Z,22.77
2019-03-08T09:17:06.456Z,18.48
2019-03-08T09:19:42.009Z,14.83
2019-03-08T09:22:17.628Z,13.10
2019-03-08T09:24:47.509Z,20.77
2019-03-08T09:27:20.100Z,19.03
2019-03-08T09:30:04.787Z,16.90
2019-03-08T09:32:40.379Z,20.77
2019-03-08T09:35:26.178Z,12.23
2019-03-08T09:37:56.117Z,10.47
2019-03-08T09:40:28.609Z,22.53
2019-03-08T09:43:07.136Z,10.70
2019-03-08T09:45:48.749Z,17.13
2019-03-08T09:48:34.612Z,11.75
2019-03-08T09:51:04.527Z,27.87
2019-03-08T09:53:34.435Z,11.20
2019-03-08T09:56:04.363Z,11.00
2019-03-08T09:58:50.286Z,13.03
2019-03-08T10:01:20.173Z,12.87
2019-03-08T10:03:50.079Z,8.18
2019-03-08T10:06:25.990Z,10.87
2019-03-08T10:08:56.465Z,9.03
2019-03-08T10:11:31.774Z,15.10
2019-03-08T10:14:01.678Z,18.05
2019-03-08T10:16:47.692Z,12.80
2019-03-08T10:19:29.688Z,13.73
2019-03-08T10:22:08.472Z,13.48
2019-03-08T10:24:41.274Z,12.93
2019-03-08T10:27:14.649Z,14.55
2019-03-08T10:29:56.385Z,16.60
2019-03-08T10:32:26.328Z,18.07
2019-03-08T10:35:05.045Z,12.45
2019-03-08T10:37:40.865Z,14.77
2019-03-08T10:40:11.741Z,13.33
2019-03-08T10:42:44.279Z,16.03
2019-03-08T10:45:25.917Z,10.67
2019-03-08T10:48:07.322Z,12.00
2019-03-08T10:50:53.399Z,14.67
2019-03-08T10:53:26.229Z,19.30
2019-03-08T10:55:56.142Z,13.13
2019-03-08T10:58:28.690Z,12.50
2019-03-08T11:01:07.625Z,6.08
2019-03-08T11:03:43.315Z,20.08
2019-03-08T11:06:13.224Z,11.40
2019-03-08T11:08:43.115Z,11.77
2019-03-08T11:11:29.339Z,10.90
2019-03-08T11:14:14.914Z,9.95
2019-03-08T11:16:47.717Z,20.53
2019-03-08T11:19:17.665Z,11.60
2019-03-08T11:22:03.551Z,20.27
2019-03-08T11:24:42.223Z,13.03
2019-03-08T11:27:24.135Z,10.57
2019-03-08T11:29:54.048Z,12.50
2019-03-08T11:32:38.668Z,15.48
2019-03-08T11:35:16.750Z,6.53
2019-03-08T11:37:46.669Z,10.70
2019-03-08T11:40:22.635Z,14.23
2019-03-08T11:42:52.552Z,14.33
2019-03-08T11:45:40.242Z,14.33
2019-03-08T11:48:12.814Z,17.03
2019-03-08T11:51:00.572Z,13.10
2019-03-08T11:53:55.763Z,13.93
2019-03-08T11:56:18.271Z,10.07
2019-03-08T11:59:06.311Z,11.38
2019-03-08T12:01:44.760Z,13.00
2019-03-08T12:04:20.295Z,12.40
2019-03-08T12:06:56.148Z,14.77
2019-03-08T12:09:26.074Z,13.32
2019-03-08T12:11:58.969Z,13.23
2019-03-08T12:14:28.898Z,11.20
2019-03-08T12:17:14.397Z,9.50
2019-03-08T12:19:46.826Z,16.63
2019-03-08T12:22:16.720Z,10.90
2019-03-08T12:24:58.657Z,13.70
2019-03-08T12:27:31.251Z,14.60
2019-03-08T12:30:09.916Z,19.07
2019-03-08T12:32:40.509Z,14.70
2019-03-08T12:35:11.551Z,11.40
2019-03-08T12:37:47.303Z,14.28
2019-03-08T12:40:17.297Z,10.10
2019-03-08T12:43:08.085Z,10.93
2019-03-08T12:45:33.341Z,18.27
2019-03-08T12:48:23.437Z,18.70
2019-03-08T12:50:58.184Z,11.80
2019-03-08T12:53:39.928Z,11.13
2019-03-08T12:56:09.846Z,15.17
2019-03-08T12:58:39.771Z,9.43
2019-03-08T13:01:21.631Z,14.53
2019-03-08T13:03:51.572Z,15.70
2019-03-08T13:06:39.309Z,16.10
2019-03-08T13:09:14.170Z,10.90
2019-03-08T13:11:42.436Z,7.03
2019-03-08T13:14:10.690Z,7.10
2019-03-08T13:16:38.963Z,13.20
2019-03-08T13:19:07.244Z,11.77
2019-03-08T13:21:35.501Z,6.83
2019-03-08T13:24:03.959Z,11.93
2019-03-08T13:26:32.239Z,11.00
2019-03-08T13:29:00.523Z,6.58
2019-03-08T13:31:28.804Z,14.33
2019-03-08T13:33:57.053Z,4.62
2019-03-08T13:36:25.315Z,10.50
2019-03-08T13:38:53.573Z,6.10
2019-03-08T13:41:22.031Z,5.47
2019-03-08T13:43:50.303Z,10.70
2019-03-08T13:46:18.588Z,6.03
2019-03-08T13:48:46.870Z,9.73
2019-03-08T13:51:15.132Z,8.50
2019-03-08T13:53:43.410Z,11.27
2019-03-08T13:56:11.844Z,8.15
2019-03-08T13:58:40.124Z,11.47
2019-03-08T14:01:08.378Z,10.03
2019-03-08T14:03:36.649Z,7.27
2019-03-08T14:06:04.913Z,10.27
2019-03-08T14:08:33.168Z,7.40
2019-03-08T14:11:01.726Z,10.10
2019-03-08T14:13:30.029Z,10.13
2019-03-08T14:15:58.299Z,4.50
2019-03-08T14:18:26.604Z,11.68
2019-03-08T14:26:25.950Z,12.35
2019-03-08T14:28:54.208Z,6.37
2019-03-08T14:31:24.105Z,9.78
2019-03-08T14:33:52.555Z,8.13
2019-03-08T14:36:20.813Z,6.97
2019-03-08T14:38:49.077Z,9.43
2019-03-08T14:41:30.637Z,11.60
2019-03-08T14:43:59.380Z,5.05
2019-03-08T14:46:32.088Z,11.00
2019-03-08T14:49:00.344Z,10.85
2019-03-08T14:51:28.674Z,6.70
2019-03-08T14:53:56.909Z,9.03
2019-03-08T14:56:25.173Z,7.77
2019-03-08T14:58:53.728Z,10.60
2019-03-08T15:01:22.102Z,9.83
2019-03-08T15:03:50.359Z,9.27
2019-03-08T15:06:18.610Z,4.30
2019-03-08T15:08:46.880Z,7.10
2019-03-08T15:11:15.172Z,6.43
2019-03-08T15:13:43.623Z,9.83
2019-03-08T15:16:11.894Z,8.90
2019-03-08T15:18:40.152Z,12.10
2019-03-08T15:21:08.497Z,9.70
2019-03-08T15:23:36.770Z,11.70
2019-03-08T15:26:05.102Z,10.07
2019-03-08T15:28:33.388Z,11.20
2019-03-08T15:31:01.717Z,8.43
2019-03-08T15:33:29.949Z,10.73
2019-03-08T15:35:58.266Z,6.17
2019-03-08T15:38:26.479Z,7.60
2019-03-08T15:40:55.045Z,5.83
2019-03-08T15:43:23.331Z,12.60
2019-03-08T15:45:51.605Z,10.87
2019-03-08T15:48:19.903Z,5.03
2019-03-08T15:50:48.222Z,14.53
2019-03-08T15:53:16.520Z,21.75
2019-03-08T15:55:52.472Z,5.47
2019-03-08T15:58:16.617Z,15.53
2019-03-08T16:00:44.882Z,9.55
2019-03-08T16:03:13.161Z,7.70
2019-03-08T16:05:41.444Z,13.10
2019-03-08T16:08:15.895Z,6.35
2019-03-08T16:10:44.946Z,8.90
2019-03-08T16:13:13.207Z,17.33
2019-03-08T16:15:41.497Z,10.80
2019-03-08T16:18:09.762Z,14.80
2019-03-08T16:20:38.607Z,10.83
2019-03-08T16:23:08.451Z,6.87
2019-03-08T16:25:41.156Z,15.43
2019-03-08T16:28:06.813Z,7.77
2019-03-08T16:30:38.346Z,8.47
2019-03-08T16:33:14.377Z,9.20
2019-03-08T16:35:56.323Z,9.60
2019-03-08T16:38:37.895Z,11.77
2019-03-08T16:41:14.084Z,6.47
2019-03-08T16:43:56.960Z,9.75
2019-03-08T16:46:32.517Z,7.92
2019-03-08T16:49:04.801Z,6.55
2019-03-08T16:51:43.395Z,2.20
2019-03-08T16:54:28.016Z,7.20
2019-03-08T16:57:13.010Z,9.83
2019-03-08T16:59:45.608Z,6.30
2019-03-08T17:02:27.512Z,9.68
2019-03-08T17:05:06.076Z,10.43
2019-03-08T17:07:41.562Z,6.00
2019-03-08T17:10:13.891Z,7.73
2019-03-08T17:12:55.767Z,7.83
2019-03-08T17:15:40.512Z,8.33
2019-03-08T17:18:10.414Z,7.45
2019-03-08T17:20:40.513Z,3.60
2019-03-08T17:23:22.088Z,6.97
2019-03-08T17:25:51.990Z,7.60
2019-03-08T17:28:21.901Z,6.27
2019-03-08T17:30:54.916Z,5.70
2019-03-08T17:33:36.884Z,7.13
2019-03-08T17:36:12.598Z,6.10
2019-03-08T17:38:42.513Z,10.57
2019-03-08T17:41:12.431Z,8.50
2019-03-08T17:43:42.746Z,11.60
2019-03-08T17:46:28.576Z,4.40
2019-03-08T17:49:01.325Z,7.73
2019-03-08T17:51:42.939Z,9.63
2019-03-08T17:54:24.910Z,4.40
2019-03-08T17:57:07.106Z,3.83
2019-03-08T17:59:37.018Z,11.33
2019-03-08T18:02:09.579Z,10.70
2019-03-08T18:04:42.181Z,7.83
2019-03-08T18:07:23.850Z,10.68
2019-03-08T18:09:53.762Z,4.37
2019-03-08T18:12:26.554Z,9.00
2019-03-08T18:15:08.202Z,5.13
2019-03-08T18:17:38.135Z,5.30
2019-03-08T18:20:21.337Z,9.13
2019-03-08T18:22:56.633Z,4.43
2019-03-08T18:25:29.193Z,6.07
2019-03-08T18:28:01.795Z,7.03
2019-03-08T18:30:31.700Z,11.97
2019-03-08T18:33:04.266Z,6.47
2019-03-08T18:35:36.782Z,7.53
2019-03-08T18:38:09.642Z,7.60
2019-03-08T18:40:39.553Z,13.58
2019-03-08T18:43:09.465Z,8.50
2019-03-08T18:45:39.361Z,14.23
2019-03-08T18:48:24.324Z,10.40
2019-03-08T18:50:57.149Z,4.20
2019-03-08T18:53:44.995Z,6.30
2019-03-08T18:56:32.558Z,7.90
2019-03-08T18:59:18.129Z,9.10
2019-03-08T19:01:56.763Z,8.47
2019-03-08T19:04:42.879Z,11.90
2019-03-08T19:07:15.710Z,7.42
2019-03-08T19:09:45.612Z,6.80
2019-03-08T19:12:17.915Z,4.10
2019-03-08T19:15:04.173Z,7.80
2019-03-08T19:17:34.074Z,10.07
2019-03-08T19:20:19.860Z,6.97
2019-03-08T19:23:07.308Z,12.63
2019-03-08T19:25:45.963Z,3.93
2019-03-08T19:28:31.777Z,12.68
2019-03-08T19:31:01.680Z,11.57
2019-03-08T19:33:46.454Z,12.00
2019-03-08T19:36:16.371Z,10.03
2019-03-08T19:38:46.370Z,11.23
2019-03-08T19:41:18.974Z,20.30
2019-03-08T19:43:54.514Z,11.57
2019-03-08T19:46:40.405Z,12.30
2019-03-08T19:49:10.391Z,7.77
2019-03-08T19:51:43.250Z,12.37
2019-03-08T19:54:13.168Z,12.93
2019-03-08T19:56:48.897Z,13.65
2019-03-08T19:59:34.494Z,11.73
2019-03-08T20:02:19.271Z,12.45
2019-03-08T20:05:05.184Z,18.37
2019-03-08T20:07:43.919Z,14.38
2019-03-08T20:10:28.626Z,10.73
2019-03-08T20:12:58.539Z,16.35
2019-03-08T20:15:40.494Z,11.20
2019-03-08T20:18:22.189Z,12.97
2019-03-08T20:21:00.900Z,5.80
2019-03-08T20:23:30.784Z,11.00
2019-03-08T20:26:09.596Z,13.47
2019-03-08T20:28:47.991Z,16.70
2019-03-08T20:31:26.679Z,12.50
2019-03-08T20:34:13.341Z,9.03
2019-03-08T20:36:45.698Z,14.63
2019-03-08T20:39:33.426Z,11.07
2019-03-08T20:42:03.332Z,10.80
2019-03-08T20:44:33.218Z,16.20
2019-03-08T20:47:11.845Z,13.97
2019-03-08T20:49:40.093Z,14.60
2019-03-08T20:52:08.352Z,12.07
2019-03-08T20:54:36.781Z,13.93
2019-03-08T20:57:05.126Z,10.80
2019-03-08T20:59:33.373Z,10.73
2019-03-08T21:02:01.654Z,12.78
2019-03-08T21:04:29.947Z,12.83
2019-03-08T21:06:58.226Z,11.20
2019-03-08T21:09:26.505Z,16.10
2019-03-08T21:11:54.770Z,9.77
2019-03-08T21:14:23.032Z,11.57
2019-03-08T21:16:51.319Z,13.80
2019-03-08T21:19:19.586Z,11.67
2019-03-08T21:21:48.130Z,9.70
2019-03-08T21:24:16.413Z,9.43
2019-03-08T21:26:44.682Z,9.67
2019-03-08T21:29:12.933Z,10.77
2019-03-08T21:31:41.200Z,7.73
2019-03-08T21:34:09.492Z,16.02
2019-03-08T21:36:37.840Z,11.73
2019-03-08T21:39:06.200Z,11.40
2019-03-08T21:41:34.481Z,18.67
2019-03-08T21:44:02.752Z,10.20
2019-03-08T21:46:31.029Z,13.10
2019-03-08T21:48:59.368Z,12.73
2019-03-08T21:51:27.698Z,16.00
2019-03-08T21:53:55.983Z,11.93
2019-03-08T21:56:24.228Z,13.53
2019-03-08T21:58:52.533Z,10.10
2019-03-08T22:01:20.786Z,10.37
2019-03-08T22:03:50.967Z,9.57
2019-03-08T22:06:19.217Z,9.70
2019-03-08T22:08:57.821Z,14.90
2019-03-08T22:11:27.715Z,12.15
2019-03-08T22:13:55.982Z,18.62
2019-03-08T22:16:24.253Z,5.05
2019-03-08T22:18:52.517Z,10.33
2019-03-08T22:21:20.789Z,10.80
2019-03-08T22:23:49.033Z,9.90
2019-03-08T22:26:17.296Z,10.40
2019-03-08T22:28:45.828Z,10.55
2019-03-08T22:31:14.099Z,7.97
2019-03-08T22:33:43.272Z,11.60
2019-03-08T22:36:11.553Z,10.63
2019-03-08T22:38:39.813Z,13.63
2019-03-08T22:41:08.092Z,8.73
2019-03-08T22:43:36.362Z,16.35
2019-03-08T22:46:04.648Z,8.58
2019-03-08T22:48:32.931Z,14.70
2019-03-08T22:51:01.224Z,11.50
2019-03-08T22:53:29.493Z,5.10
2019-03-08T22:55:57.766Z,9.03
2019-03-08T22:58:26.027Z,8.20
2019-03-08T23:00:59.123Z,12.15
2019-03-08T23:03:28.200Z,10.23
2019-03-08T23:05:56.471Z,10.33
2019-03-08T23:08:24.731Z,12.55
2019-03-08T23:10:53.026Z,7.25
2019-03-08T23:13:21.269Z,9.33
2019-03-08T23:15:49.591Z,9.33
2019-03-08T23:18:17.848Z,8.70
2019-03-08T23:20:46.796Z,6.60
2019-03-08T23:23:15.233Z,9.83
2019-03-08T23:25:43.499Z,11.70
2019-03-08T23:28:25.127Z,12.18
2019-03-08T23:30:55.037Z,8.97
2019-03-08T23:33:23.582Z,8.17
2019-03-08T23:35:51.844Z,7.27
2019-03-08T23:38:20.109Z,8.37
2019-03-08T23:40:48.361Z,4.13
2019-03-08T23:43:16.639Z,9.33
2019-03-08T23:45:44.910Z,11.03
2019-03-08T23:48:13.177Z,9.40
2019-03-08T23:50:41.454Z,10.50
2019-03-08T23:53:09.704Z,10.30
2019-03-08T23:55:37.972Z,9.60
2019-03-08T23:58:06.241Z,8.97
